sensor_id;sensor_type;location;lat;lon;timestamp;temperature;humidity
65038;DHT22;51605;47.040;15.294;2023-06-04T00:00:25;22.40;59.30
65038;DHT22;51605;47.040;15.294;2023-06-04T00:02:51;22.40;59.20
65038;DHT22;51605;47.040;15.294;2023-06-04T00:05:17;22.40;59.30
65038;DHT22;51605;47.040;15.294;2023-06-04T00:07:42;22.40;59.30
65038;DHT22;51605;47.040;15.294;2023-06-04T00:10:09;22.40;59.30
65038;DHT22;51605;47.040;15.294;2023-06-04T00:12:34;22.40;60.10
65038;DHT22;51605;47.040;15.294;2023-06-04T00:15:00;22.40;59.30
65038;DHT22;51605;47.040;15.294;2023-06-04T00:17:26;22.40;59.30
65038;DHT22;51605;47.040;15.294;2023-06-04T00:19:52;22.40;59.20
65038;DHT22;51605;47.040;15.294;2023-06-04T00:22:17;22.40;59.20
65038;DHT22;51605;47.040;15.294;2023-06-04T00:24:43;22.40;60.20
65038;DHT22;51605;47.040;15.294;2023-06-04T00:27:09;22.40;59.30
65038;DHT22;51605;47.040;15.294;2023-06-04T00:29:35;22.40;59.30
65038;DHT22;51605;47.040;15.294;2023-06-04T00:32:02;22.40;59.30
65038;DHT22;51605;47.040;15.294;2023-06-04T00:34:28;22.40;59.40
65038;DHT22;51605;47.040;15.294;2023-06-04T00:36:53;22.40;59.40
65038;DHT22;51605;47.040;15.294;2023-06-04T00:39:19;22.40;59.50
65038;DHT22;51605;47.040;15.294;2023-06-04T00:41:45;22.40;59.50
65038;DHT22;51605;47.040;15.294;2023-06-04T00:44:10;22.40;59.60
65038;DHT22;51605;47.040;15.294;2023-06-04T00:46:37;22.40;60.50
65038;DHT22;51605;47.040;15.294;2023-06-04T00:49:04;22.40;59.70
65038;DHT22;51605;47.040;15.294;2023-06-04T00:51:30;22.40;59.60
65038;DHT22;51605;47.040;15.294;2023-06-04T00:53:56;22.30;59.60
65038;DHT22;51605;47.040;15.294;2023-06-04T00:56:21;22.40;59.50
65038;DHT22;51605;47.040;15.294;2023-06-04T00:58:47;22.40;60.50
65038;DHT22;51605;47.040;15.294;2023-06-04T01:03:49;22.30;59.70
65038;DHT22;51605;47.040;15.294;2023-06-04T01:06:31;22.30;59.70
65038;DHT22;51605;47.040;15.294;2023-06-04T01:09:01;22.30;59.70
65038;DHT22;51605;47.040;15.294;2023-06-04T01:11:35;22.30;59.70
65038;DHT22;51605;47.040;15.294;2023-06-04T01:14:01;22.30;59.80
65038;DHT22;51605;47.040;15.294;2023-06-04T01:16:30;22.30;60.60
65038;DHT22;51605;47.040;15.294;2023-06-04T01:19:02;22.30;59.70
65038;DHT22;51605;47.040;15.294;2023-06-04T01:21:32;22.40;59.80
65038;DHT22;51605;47.040;15.294;2023-06-04T01:24:01;22.30;59.80
65038;DHT22;51605;47.040;15.294;2023-06-04T01:26:31;22.30;59.80
65038;DHT22;51605;47.040;15.294;2023-06-04T01:28:58;22.30;59.80
65038;DHT22;51605;47.040;15.294;2023-06-04T01:31:26;22.30;59.90
65038;DHT22;51605;47.040;15.294;2023-06-04T01:33:54;22.30;59.80
65038;DHT22;51605;47.040;15.294;2023-06-04T01:36:21;22.30;59.80
65038;DHT22;51605;47.040;15.294;2023-06-04T01:38:47;22.40;59.90
65038;DHT22;51605;47.040;15.294;2023-06-04T01:41:12;22.40;59.90
65038;DHT22;51605;47.040;15.294;2023-06-04T01:43:38;22.30;59.90
65038;DHT22;51605;47.040;15.294;2023-06-04T01:46:04;22.30;59.80
65038;DHT22;51605;47.040;15.294;2023-06-04T01:48:30;22.40;59.90
65038;DHT22;51605;47.040;15.294;2023-06-04T01:50:57;22.40;60.00
65038;DHT22;51605;47.040;15.294;2023-06-04T01:53:23;22.40;59.90
65038;DHT22;51605;47.040;15.294;2023-06-04T01:55:48;22.40;59.80
65038;DHT22;51605;47.040;15.294;2023-06-04T01:58:15;22.40;59.80
65038;DHT22;51605;47.040;15.294;2023-06-04T02:00:55;22.40;59.80
65038;DHT22;51605;47.040;15.294;2023-06-04T02:03:26;22.40;59.80
65038;DHT22;51605;47.040;15.294;2023-06-04T02:05:52;22.40;59.80
65038;DHT22;51605;47.040;15.294;2023-06-04T02:08:17;22.40;59.80
65038;DHT22;51605;47.040;15.294;2023-06-04T02:10:48;22.40;59.90
65038;DHT22;51605;47.040;15.294;2023-06-04T02:13:14;22.40;59.80
65038;DHT22;51605;47.040;15.294;2023-06-04T02:15:40;22.40;59.80
65038;DHT22;51605;47.040;15.294;2023-06-04T02:20:41;22.40;59.80
65038;DHT22;51605;47.040;15.294;2023-06-04T02:23:08;22.40;59.90
65038;DHT22;51605;47.040;15.294;2023-06-04T02:25:33;22.30;59.80
65038;DHT22;51605;47.040;15.294;2023-06-04T02:27:59;22.40;59.80
65038;DHT22;51605;47.040;15.294;2023-06-04T02:30:25;22.40;59.80
65038;DHT22;51605;47.040;15.294;2023-06-04T02:32:50;22.40;59.80
65038;DHT22;51605;47.040;15.294;2023-06-04T02:35:17;22.40;59.80
65038;DHT22;51605;47.040;15.294;2023-06-04T02:37:51;22.40;59.80
65038;DHT22;51605;47.040;15.294;2023-06-04T02:40:17;22.40;59.80
65038;DHT22;51605;47.040;15.294;2023-06-04T02:42:42;22.30;59.70
65038;DHT22;51605;47.040;15.294;2023-06-04T02:45:09;22.30;59.80
65038;DHT22;51605;47.040;15.294;2023-06-04T02:47:35;22.40;59.90
65038;DHT22;51605;47.040;15.294;2023-06-04T02:50:00;22.40;59.80
65038;DHT22;51605;47.040;15.294;2023-06-04T02:52:28;22.40;59.80
65038;DHT22;51605;47.040;15.294;2023-06-04T02:54:56;22.40;59.80
65038;DHT22;51605;47.040;15.294;2023-06-04T02:57:21;22.30;59.70
65038;DHT22;51605;47.040;15.294;2023-06-04T02:59:47;22.40;59.80
65038;DHT22;51605;47.040;15.294;2023-06-04T03:02:12;22.40;59.80
65038;DHT22;51605;47.040;15.294;2023-06-04T03:04:43;22.40;59.70
65038;DHT22;51605;47.040;15.294;2023-06-04T03:07:09;22.40;59.80
65038;DHT22;51605;47.040;15.294;2023-06-04T03:09:37;22.40;59.80
65038;DHT22;51605;47.040;15.294;2023-06-04T03:12:03;22.40;59.80
65038;DHT22;51605;47.040;15.294;2023-06-04T03:14:29;22.40;59.80
65038;DHT22;51605;47.040;15.294;2023-06-04T03:17:01;22.40;60.00
65038;DHT22;51605;47.040;15.294;2023-06-04T03:19:36;22.30;59.70
65038;DHT22;51605;47.040;15.294;2023-06-04T03:22:03;22.40;59.80
65038;DHT22;51605;47.040;15.294;2023-06-04T03:24:33;22.30;59.70
65038;DHT22;51605;47.040;15.294;2023-06-04T03:26:59;22.30;59.80
65038;DHT22;51605;47.040;15.294;2023-06-04T03:29:25;22.30;59.80
65038;DHT22;51605;47.040;15.294;2023-06-04T03:31:50;22.40;59.80
65038;DHT22;51605;47.040;15.294;2023-06-04T03:34:16;22.40;59.80
65038;DHT22;51605;47.040;15.294;2023-06-04T03:36:42;22.30;59.70
65038;DHT22;51605;47.040;15.294;2023-06-04T03:39:07;22.40;59.80
65038;DHT22;51605;47.040;15.294;2023-06-04T03:41:33;22.40;59.80
65038;DHT22;51605;47.040;15.294;2023-06-04T03:43:58;22.40;59.80
65038;DHT22;51605;47.040;15.294;2023-06-04T03:46:24;22.40;59.70
65038;DHT22;51605;47.040;15.294;2023-06-04T03:48:57;22.40;59.80
65038;DHT22;51605;47.040;15.294;2023-06-04T03:51:23;22.40;59.80
65038;DHT22;51605;47.040;15.294;2023-06-04T03:53:48;22.40;59.80
65038;DHT22;51605;47.040;15.294;2023-06-04T03:56:14;22.30;59.80
65038;DHT22;51605;47.040;15.294;2023-06-04T03:58:40;22.40;59.80
65038;DHT22;51605;47.040;15.294;2023-06-04T04:01:06;22.40;59.80
65038;DHT22;51605;47.040;15.294;2023-06-04T04:03:34;22.40;59.80
65038;DHT22;51605;47.040;15.294;2023-06-04T04:06:00;22.40;59.80
65038;DHT22;51605;47.040;15.294;2023-06-04T04:08:26;22.40;59.80
65038;DHT22;51605;47.040;15.294;2023-06-04T04:11:00;22.40;60.00
65038;DHT22;51605;47.040;15.294;2023-06-04T04:13:25;22.40;59.80
65038;DHT22;51605;47.040;15.294;2023-06-04T04:15:51;22.40;59.80
65038;DHT22;51605;47.040;15.294;2023-06-04T04:18:19;22.40;59.80
65038;DHT22;51605;47.040;15.294;2023-06-04T04:20:46;22.40;59.80
65038;DHT22;51605;47.040;15.294;2023-06-04T04:23:12;22.40;59.80
65038;DHT22;51605;47.040;15.294;2023-06-04T04:25:38;22.40;60.00
65038;DHT22;51605;47.040;15.294;2023-06-04T04:28:04;22.40;59.70
65038;DHT22;51605;47.040;15.294;2023-06-04T04:30:34;22.40;59.80
65038;DHT22;51605;47.040;15.294;2023-06-04T04:33:01;22.40;59.80
65038;DHT22;51605;47.040;15.294;2023-06-04T04:35:27;22.40;59.80
65038;DHT22;51605;47.040;15.294;2023-06-04T04:37:54;22.40;59.80
65038;DHT22;51605;47.040;15.294;2023-06-04T04:40:20;22.40;59.80
65038;DHT22;51605;47.040;15.294;2023-06-04T04:42:46;22.40;59.70
65038;DHT22;51605;47.040;15.294;2023-06-04T04:45:12;22.40;59.70
65038;DHT22;51605;47.040;15.294;2023-06-04T04:47:38;22.40;59.70
65038;DHT22;51605;47.040;15.294;2023-06-04T04:50:04;22.40;59.70
65038;DHT22;51605;47.040;15.294;2023-06-04T04:52:30;22.40;59.70
65038;DHT22;51605;47.040;15.294;2023-06-04T04:54:56;22.40;59.70
65038;DHT22;51605;47.040;15.294;2023-06-04T04:57:23;22.40;59.60
65038;DHT22;51605;47.040;15.294;2023-06-04T04:59:49;22.40;59.70
65038;DHT22;51605;47.040;15.294;2023-06-04T05:02:15;22.40;59.70
65038;DHT22;51605;47.040;15.294;2023-06-04T05:04:41;22.40;59.70
65038;DHT22;51605;47.040;15.294;2023-06-04T05:07:06;22.40;59.80
65038;DHT22;51605;47.040;15.294;2023-06-04T05:09:32;22.40;59.80
65038;DHT22;51605;47.040;15.294;2023-06-04T05:11:58;22.40;59.80
65038;DHT22;51605;47.040;15.294;2023-06-04T05:14:23;22.40;59.90
65038;DHT22;51605;47.040;15.294;2023-06-04T05:16:49;22.40;59.80
65038;DHT22;51605;47.040;15.294;2023-06-04T05:19:18;22.40;59.80
65038;DHT22;51605;47.040;15.294;2023-06-04T05:21:44;22.40;59.80
65038;DHT22;51605;47.040;15.294;2023-06-04T05:24:10;22.40;59.80
65038;DHT22;51605;47.040;15.294;2023-06-04T05:26:36;22.40;59.80
65038;DHT22;51605;47.040;15.294;2023-06-04T05:29:02;22.40;59.80
65038;DHT22;51605;47.040;15.294;2023-06-04T05:31:29;22.40;59.80
65038;DHT22;51605;47.040;15.294;2023-06-04T05:33:59;22.40;59.90
65038;DHT22;51605;47.040;15.294;2023-06-04T05:36:27;22.40;59.80
65038;DHT22;51605;47.040;15.294;2023-06-04T05:38:53;22.40;59.90
65038;DHT22;51605;47.040;15.294;2023-06-04T05:41:25;22.40;59.90
65038;DHT22;51605;47.040;15.294;2023-06-04T05:43:51;22.40;59.90
65038;DHT22;51605;47.040;15.294;2023-06-04T05:46:17;22.40;59.90
65038;DHT22;51605;47.040;15.294;2023-06-04T05:48:43;22.40;59.80
65038;DHT22;51605;47.040;15.294;2023-06-04T05:51:09;22.40;59.80
65038;DHT22;51605;47.040;15.294;2023-06-04T05:53:35;22.40;59.80
65038;DHT22;51605;47.040;15.294;2023-06-04T05:56:01;22.40;59.80
65038;DHT22;51605;47.040;15.294;2023-06-04T05:58:26;22.40;59.80
65038;DHT22;51605;47.040;15.294;2023-06-04T06:00:52;22.40;59.90
65038;DHT22;51605;47.040;15.294;2023-06-04T06:03:18;22.30;59.80
65038;DHT22;51605;47.040;15.294;2023-06-04T06:05:44;22.40;60.00
65038;DHT22;51605;47.040;15.294;2023-06-04T06:08:10;22.40;59.90
65038;DHT22;51605;47.040;15.294;2023-06-04T06:10:36;22.40;59.90
65038;DHT22;51605;47.040;15.294;2023-06-04T06:13:02;22.30;59.80
65038;DHT22;51605;47.040;15.294;2023-06-04T06:15:27;22.40;59.90
65038;DHT22;51605;47.040;15.294;2023-06-04T06:17:54;22.40;59.90
65038;DHT22;51605;47.040;15.294;2023-06-04T06:20:20;22.40;59.90
65038;DHT22;51605;47.040;15.294;2023-06-04T06:22:47;22.30;59.90
65038;DHT22;51605;47.040;15.294;2023-06-04T06:25:13;22.40;59.90
65038;DHT22;51605;47.040;15.294;2023-06-04T06:27:42;22.40;60.00
65038;DHT22;51605;47.040;15.294;2023-06-04T06:30:08;22.40;59.90
65038;DHT22;51605;47.040;15.294;2023-06-04T06:32:34;22.40;59.90
65038;DHT22;51605;47.040;15.294;2023-06-04T06:35:01;22.40;59.90
65038;DHT22;51605;47.040;15.294;2023-06-04T06:37:26;22.40;59.90
65038;DHT22;51605;47.040;15.294;2023-06-04T06:39:52;22.40;59.80
65038;DHT22;51605;47.040;15.294;2023-06-04T06:42:17;22.40;59.90
65038;DHT22;51605;47.040;15.294;2023-06-04T06:44:44;22.40;59.90
65038;DHT22;51605;47.040;15.294;2023-06-04T06:47:10;22.40;59.90
65038;DHT22;51605;47.040;15.294;2023-06-04T06:49:39;22.40;60.00
65038;DHT22;51605;47.040;15.294;2023-06-04T06:52:05;22.40;59.90
65038;DHT22;51605;47.040;15.294;2023-06-04T06:54:31;22.40;59.90
65038;DHT22;51605;47.040;15.294;2023-06-04T06:56:57;22.40;60.00
65038;DHT22;51605;47.040;15.294;2023-06-04T06:59:23;22.40;60.00
65038;DHT22;51605;47.040;15.294;2023-06-04T07:01:49;22.40;60.00
65038;DHT22;51605;47.040;15.294;2023-06-04T07:04:15;22.40;59.90
65038;DHT22;51605;47.040;15.294;2023-06-04T07:06:41;22.40;59.90
65038;DHT22;51605;47.040;15.294;2023-06-04T07:09:07;22.40;59.90
65038;DHT22;51605;47.040;15.294;2023-06-04T07:11:33;22.40;60.00
65038;DHT22;51605;47.040;15.294;2023-06-04T07:13:59;22.40;60.00
65038;DHT22;51605;47.040;15.294;2023-06-04T07:16:28;22.40;60.00
65038;DHT22;51605;47.040;15.294;2023-06-04T07:18:53;22.40;59.90
65038;DHT22;51605;47.040;15.294;2023-06-04T07:21:19;22.40;60.00
65038;DHT22;51605;47.040;15.294;2023-06-04T07:23:47;22.40;60.00
65038;DHT22;51605;47.040;15.294;2023-06-04T07:26:15;22.40;60.00
65038;DHT22;51605;47.040;15.294;2023-06-04T07:28:41;22.40;60.00
65038;DHT22;51605;47.040;15.294;2023-06-04T07:31:07;22.30;60.00
65038;DHT22;51605;47.040;15.294;2023-06-04T07:33:33;22.30;59.90
65038;DHT22;51605;47.040;15.294;2023-06-04T07:35:59;22.40;59.90
65038;DHT22;51605;47.040;15.294;2023-06-04T07:38:25;22.40;60.00
65038;DHT22;51605;47.040;15.294;2023-06-04T07:40:51;22.40;60.00
65038;DHT22;51605;47.040;15.294;2023-06-04T07:43:17;22.30;60.00
65038;DHT22;51605;47.040;15.294;2023-06-04T07:45:42;22.40;60.00
65038;DHT22;51605;47.040;15.294;2023-06-04T07:48:11;22.30;59.90
65038;DHT22;51605;47.040;15.294;2023-06-04T07:50:37;22.30;59.90
65038;DHT22;51605;47.040;15.294;2023-06-04T07:53:03;22.40;60.10
65038;DHT22;51605;47.040;15.294;2023-06-04T07:55:28;22.40;60.00
65038;DHT22;51605;47.040;15.294;2023-06-04T07:57:54;22.40;60.00
65038;DHT22;51605;47.040;15.294;2023-06-04T08:00:20;22.40;60.00
65038;DHT22;51605;47.040;15.294;2023-06-04T08:02:46;22.40;60.00
65038;DHT22;51605;47.040;15.294;2023-06-04T08:05:11;22.40;60.00
65038;DHT22;51605;47.040;15.294;2023-06-04T08:07:40;22.40;60.00
65038;DHT22;51605;47.040;15.294;2023-06-04T08:10:06;22.40;60.00
65038;DHT22;51605;47.040;15.294;2023-06-04T08:12:32;22.40;60.00
65038;DHT22;51605;47.040;15.294;2023-06-04T08:14:57;22.40;59.80
65038;DHT22;51605;47.040;15.294;2023-06-04T08:17:23;22.40;60.00
65038;DHT22;51605;47.040;15.294;2023-06-04T08:19:49;22.30;60.00
65038;DHT22;51605;47.040;15.294;2023-06-04T08:22:15;22.30;60.00
65038;DHT22;51605;47.040;15.294;2023-06-04T08:24:41;22.40;60.10
65038;DHT22;51605;47.040;15.294;2023-06-04T08:27:07;22.30;60.10
65038;DHT22;51605;47.040;15.294;2023-06-04T08:29:34;22.30;60.10
65038;DHT22;51605;47.040;15.294;2023-06-04T08:32:01;22.40;60.20
65038;DHT22;51605;47.040;15.294;2023-06-04T08:34:28;22.40;60.10
65038;DHT22;51605;47.040;15.294;2023-06-04T08:36:53;22.30;60.10
65038;DHT22;51605;47.040;15.294;2023-06-04T08:39:19;22.30;60.20
65038;DHT22;51605;47.040;15.294;2023-06-04T08:41:49;22.30;60.10
65038;DHT22;51605;47.040;15.294;2023-06-04T08:44:17;22.30;60.10
65038;DHT22;51605;47.040;15.294;2023-06-04T08:46:44;22.30;60.20
65038;DHT22;51605;47.040;15.294;2023-06-04T08:49:12;22.40;60.20
65038;DHT22;51605;47.040;15.294;2023-06-04T08:51:38;22.40;60.10
65038;DHT22;51605;47.040;15.294;2023-06-04T08:54:05;22.40;60.10
65038;DHT22;51605;47.040;15.294;2023-06-04T08:56:33;22.40;60.20
65038;DHT22;51605;47.040;15.294;2023-06-04T08:59:04;22.40;60.10
65038;DHT22;51605;47.040;15.294;2023-06-04T09:01:31;22.40;60.10
65038;DHT22;51605;47.040;15.294;2023-06-04T09:03:59;22.40;60.10
65038;DHT22;51605;47.040;15.294;2023-06-04T09:06:26;22.40;60.20
65038;DHT22;51605;47.040;15.294;2023-06-04T09:08:56;22.40;60.30
65038;DHT22;51605;47.040;15.294;2023-06-04T09:11:35;22.40;60.20
65038;DHT22;51605;47.040;15.294;2023-06-04T09:14:02;22.40;60.20
65038;DHT22;51605;47.040;15.294;2023-06-04T09:16:29;22.40;60.20
65038;DHT22;51605;47.040;15.294;2023-06-04T09:19:02;22.40;60.10
65038;DHT22;51605;47.040;15.294;2023-06-04T09:21:27;22.40;60.20
65038;DHT22;51605;47.040;15.294;2023-06-04T09:23:53;22.40;60.20
65038;DHT22;51605;47.040;15.294;2023-06-04T09:26:19;22.30;60.10
65038;DHT22;51605;47.040;15.294;2023-06-04T09:28:47;22.40;60.20
65038;DHT22;51605;47.040;15.294;2023-06-04T09:31:16;22.40;60.20
65038;DHT22;51605;47.040;15.294;2023-06-04T09:33:46;22.40;60.10
65038;DHT22;51605;47.040;15.294;2023-06-04T09:36:12;22.40;60.30
65038;DHT22;51605;47.040;15.294;2023-06-04T09:38:38;22.40;60.50
65038;DHT22;51605;47.040;15.294;2023-06-04T09:41:05;22.40;60.60
65038;DHT22;51605;47.040;15.294;2023-06-04T09:43:36;22.40;60.80
65038;DHT22;51605;47.040;15.294;2023-06-04T09:46:12;22.50;61.10
65038;DHT22;51605;47.040;15.294;2023-06-04T09:48:39;22.50;61.40
65038;DHT22;51605;47.040;15.294;2023-06-04T09:51:15;22.60;61.60
65038;DHT22;51605;47.040;15.294;2023-06-04T09:53:56;22.60;61.80
65038;DHT22;51605;47.040;15.294;2023-06-04T09:56:23;22.70;61.80
65038;DHT22;51605;47.040;15.294;2023-06-04T09:58:49;22.80;61.80
65038;DHT22;51605;47.040;15.294;2023-06-04T10:01:15;22.80;61.80
65038;DHT22;51605;47.040;15.294;2023-06-04T10:03:46;22.90;61.70
65038;DHT22;51605;47.040;15.294;2023-06-04T10:06:14;23.00;61.70
65038;DHT22;51605;47.040;15.294;2023-06-04T10:08:42;23.10;61.60
65038;DHT22;51605;47.040;15.294;2023-06-04T10:11:09;23.10;61.50
65038;DHT22;51605;47.040;15.294;2023-06-04T10:13:53;23.20;61.50
65038;DHT22;51605;47.040;15.294;2023-06-04T10:16:23;23.20;61.40
65038;DHT22;51605;47.040;15.294;2023-06-04T10:18:50;23.20;61.30
65038;DHT22;51605;47.040;15.294;2023-06-04T10:21:17;23.20;61.40
65038;DHT22;51605;47.040;15.294;2023-06-04T10:23:44;23.10;61.40
65038;DHT22;51605;47.040;15.294;2023-06-04T10:26:13;23.10;61.30
65038;DHT22;51605;47.040;15.294;2023-06-04T10:28:41;23.10;61.30
65038;DHT22;51605;47.040;15.294;2023-06-04T10:31:09;23.00;62.10
65038;DHT22;51605;47.040;15.294;2023-06-04T10:33:35;23.00;61.30
65038;DHT22;51605;47.040;15.294;2023-06-04T10:36:22;23.00;61.30
65038;DHT22;51605;47.040;15.294;2023-06-04T10:41:17;22.90;61.40
65038;DHT22;51605;47.040;15.294;2023-06-04T10:43:51;22.90;61.50
65038;DHT22;51605;47.040;15.294;2023-06-04T10:46:19;22.80;61.40
65038;DHT22;51605;47.040;15.294;2023-06-04T10:48:51;22.80;61.40
65038;DHT22;51605;47.040;15.294;2023-06-04T10:51:37;22.80;61.40
65038;DHT22;51605;47.040;15.294;2023-06-04T10:54:03;22.80;61.40
65038;DHT22;51605;47.040;15.294;2023-06-04T10:56:32;22.80;61.40
65038;DHT22;51605;47.040;15.294;2023-06-04T10:58:59;22.80;61.50
65038;DHT22;51605;47.040;15.294;2023-06-04T11:01:26;22.70;61.50
65038;DHT22;51605;47.040;15.294;2023-06-04T11:03:52;22.70;61.40
65038;DHT22;51605;47.040;15.294;2023-06-04T11:06:18;22.70;61.40
65038;DHT22;51605;47.040;15.294;2023-06-04T11:08:44;22.70;61.50
65038;DHT22;51605;47.040;15.294;2023-06-04T11:11:11;22.70;61.40
65038;DHT22;51605;47.040;15.294;2023-06-04T11:13:38;22.70;61.40
65038;DHT22;51605;47.040;15.294;2023-06-04T11:16:14;22.70;61.50
65038;DHT22;51605;47.040;15.294;2023-06-04T11:18:40;22.60;61.50
65038;DHT22;51605;47.040;15.294;2023-06-04T11:21:06;22.60;61.50
65038;DHT22;51605;47.040;15.294;2023-06-04T11:23:33;22.70;61.50
65038;DHT22;51605;47.040;15.294;2023-06-04T11:25:59;22.60;61.40
65038;DHT22;51605;47.040;15.294;2023-06-04T11:28:25;22.60;61.40
65038;DHT22;51605;47.040;15.294;2023-06-04T11:31:01;22.60;61.50
65038;DHT22;51605;47.040;15.294;2023-06-04T11:33:44;22.60;61.50
65038;DHT22;51605;47.040;15.294;2023-06-04T11:36:21;22.60;61.50
65038;DHT22;51605;47.040;15.294;2023-06-04T11:38:58;22.60;61.60
65038;DHT22;51605;47.040;15.294;2023-06-04T11:41:31;22.60;61.50
65038;DHT22;51605;47.040;15.294;2023-06-04T11:43:57;22.60;61.60
65038;DHT22;51605;47.040;15.294;2023-06-04T11:46:24;22.60;61.50
65038;DHT22;51605;47.040;15.294;2023-06-04T11:48:53;22.50;61.50
65038;DHT22;51605;47.040;15.294;2023-06-04T11:51:20;22.60;61.50
65038;DHT22;51605;47.040;15.294;2023-06-04T11:53:47;22.60;61.50
65038;DHT22;51605;47.040;15.294;2023-06-04T11:56:12;22.60;61.50
65038;DHT22;51605;47.040;15.294;2023-06-04T11:58:39;22.60;61.50
65038;DHT22;51605;47.040;15.294;2023-06-04T12:01:06;22.60;61.50
65038;DHT22;51605;47.040;15.294;2023-06-04T12:03:38;22.60;61.50
65038;DHT22;51605;47.040;15.294;2023-06-04T12:06:20;22.60;61.50
65038;DHT22;51605;47.040;15.294;2023-06-04T12:08:55;22.50;61.50
65038;DHT22;51605;47.040;15.294;2023-06-04T12:11:34;22.50;61.50
65038;DHT22;51605;47.040;15.294;2023-06-04T12:14:04;22.50;61.50
65038;DHT22;51605;47.040;15.294;2023-06-04T12:16:31;22.50;61.50
65038;DHT22;51605;47.040;15.294;2023-06-04T12:19:11;22.50;61.50
65038;DHT22;51605;47.040;15.294;2023-06-04T12:21:40;22.50;61.50
65038;DHT22;51605;47.040;15.294;2023-06-04T12:24:11;22.50;61.50
65038;DHT22;51605;47.040;15.294;2023-06-04T12:26:38;22.50;61.50
65038;DHT22;51605;47.040;15.294;2023-06-04T12:29:13;22.50;61.50
65038;DHT22;51605;47.040;15.294;2023-06-04T12:31:42;22.50;61.50
65038;DHT22;51605;47.040;15.294;2023-06-04T12:34:08;22.50;61.50
65038;DHT22;51605;47.040;15.294;2023-06-04T12:36:34;22.50;61.50
65038;DHT22;51605;47.040;15.294;2023-06-04T12:39:01;22.50;61.50
65038;DHT22;51605;47.040;15.294;2023-06-04T12:41:27;22.50;61.50
65038;DHT22;51605;47.040;15.294;2023-06-04T12:43:53;22.50;61.40
65038;DHT22;51605;47.040;15.294;2023-06-04T12:46:19;22.50;61.30
65038;DHT22;51605;47.040;15.294;2023-06-04T12:48:45;22.50;61.30
65038;DHT22;51605;47.040;15.294;2023-06-04T12:51:11;22.50;61.30
65038;DHT22;51605;47.040;15.294;2023-06-04T12:53:40;22.50;61.40
65038;DHT22;51605;47.040;15.294;2023-06-04T12:56:06;22.50;61.30
65038;DHT22;51605;47.040;15.294;2023-06-04T12:58:32;22.50;61.40
65038;DHT22;51605;47.040;15.294;2023-06-04T13:00:57;22.50;61.40
65038;DHT22;51605;47.040;15.294;2023-06-04T13:03:23;22.50;61.40
65038;DHT22;51605;47.040;15.294;2023-06-04T13:05:49;22.50;61.40
65038;DHT22;51605;47.040;15.294;2023-06-04T13:08:16;22.50;61.30
65038;DHT22;51605;47.040;15.294;2023-06-04T13:10:42;22.50;61.30
65038;DHT22;51605;47.040;15.294;2023-06-04T13:13:08;22.50;61.40
65038;DHT22;51605;47.040;15.294;2023-06-04T13:15:33;22.50;61.40
65038;DHT22;51605;47.040;15.294;2023-06-04T13:18:00;22.40;61.30
65038;DHT22;51605;47.040;15.294;2023-06-04T13:20:25;22.50;61.30
65038;DHT22;51605;47.040;15.294;2023-06-04T13:22:51;22.50;61.20
65038;DHT22;51605;47.040;15.294;2023-06-04T13:25:16;22.50;61.30
65038;DHT22;51605;47.040;15.294;2023-06-04T13:27:44;22.50;61.20
65038;DHT22;51605;47.040;15.294;2023-06-04T13:30:10;22.50;61.20
65038;DHT22;51605;47.040;15.294;2023-06-04T13:32:36;22.50;61.30
65038;DHT22;51605;47.040;15.294;2023-06-04T13:35:02;22.40;61.30
65038;DHT22;51605;47.040;15.294;2023-06-04T13:37:28;22.40;61.20
65038;DHT22;51605;47.040;15.294;2023-06-04T13:39:53;22.50;61.30
65038;DHT22;51605;47.040;15.294;2023-06-04T13:42:19;22.40;61.20
65038;DHT22;51605;47.040;15.294;2023-06-04T13:44:45;22.50;61.30
65038;DHT22;51605;47.040;15.294;2023-06-04T13:47:10;22.40;61.20
65038;DHT22;51605;47.040;15.294;2023-06-04T13:49:36;22.50;61.20
65038;DHT22;51605;47.040;15.294;2023-06-04T13:52:02;22.50;61.30
65038;DHT22;51605;47.040;15.294;2023-06-04T13:54:27;22.40;61.20
65038;DHT22;51605;47.040;15.294;2023-06-04T13:56:53;22.40;61.20
65038;DHT22;51605;47.040;15.294;2023-06-04T13:59:18;22.40;61.20
65038;DHT22;51605;47.040;15.294;2023-06-04T14:01:45;22.50;61.20
65038;DHT22;51605;47.040;15.294;2023-06-04T14:04:10;22.50;61.30
65038;DHT22;51605;47.040;15.294;2023-06-04T14:06:37;22.40;61.20
65038;DHT22;51605;47.040;15.294;2023-06-04T14:09:04;22.40;61.10
65038;DHT22;51605;47.040;15.294;2023-06-04T14:11:31;22.40;61.20
65038;DHT22;51605;47.040;15.294;2023-06-04T14:13:58;22.40;61.10
65038;DHT22;51605;47.040;15.294;2023-06-04T14:16:24;22.40;61.10
65038;DHT22;51605;47.040;15.294;2023-06-04T14:18:49;22.40;61.10
65038;DHT22;51605;47.040;15.294;2023-06-04T14:21:15;22.40;61.10
65038;DHT22;51605;47.040;15.294;2023-06-04T14:23:40;22.50;61.10
65038;DHT22;51605;47.040;15.294;2023-06-04T14:26:06;22.50;61.10
65038;DHT22;51605;47.040;15.294;2023-06-04T14:28:32;22.50;61.10
65038;DHT22;51605;47.040;15.294;2023-06-04T14:30:58;22.40;61.00
65038;DHT22;51605;47.040;15.294;2023-06-04T14:33:24;22.40;61.00
65038;DHT22;51605;47.040;15.294;2023-06-04T14:35:49;22.40;61.10
65038;DHT22;51605;47.040;15.294;2023-06-04T14:38:16;22.40;61.10
65038;DHT22;51605;47.040;15.294;2023-06-04T14:40:42;22.40;61.10
65038;DHT22;51605;47.040;15.294;2023-06-04T14:43:10;22.40;61.20
65038;DHT22;51605;47.040;15.294;2023-06-04T14:45:36;22.40;61.10
65038;DHT22;51605;47.040;15.294;2023-06-04T14:48:04;22.40;61.20
65038;DHT22;51605;47.040;15.294;2023-06-04T14:50:30;22.40;61.10
65038;DHT22;51605;47.040;15.294;2023-06-04T14:52:56;22.40;61.10
65038;DHT22;51605;47.040;15.294;2023-06-04T14:55:22;22.40;61.90
65038;DHT22;51605;47.040;15.294;2023-06-04T14:57:49;22.40;61.10
65038;DHT22;51605;47.040;15.294;2023-06-04T15:00:15;22.40;61.10
65038;DHT22;51605;47.040;15.294;2023-06-04T15:02:41;22.40;61.10
65038;DHT22;51605;47.040;15.294;2023-06-04T15:05:07;22.40;61.00
65038;DHT22;51605;47.040;15.294;2023-06-04T15:07:33;22.40;61.10
65038;DHT22;51605;47.040;15.294;2023-06-04T15:09:58;22.40;61.00
65038;DHT22;51605;47.040;15.294;2023-06-04T15:12:24;22.40;61.00
65038;DHT22;51605;47.040;15.294;2023-06-04T15:14:50;22.40;61.00
65038;DHT22;51605;47.040;15.294;2023-06-04T15:17:16;22.40;61.00
65038;DHT22;51605;47.040;15.294;2023-06-04T15:19:41;22.40;61.00
65038;DHT22;51605;47.040;15.294;2023-06-04T15:22:07;22.40;61.10